createdAt,value
2023-05-07T00:00:30.590Z,13.03
2023-05-07T00:01:30.583Z,12.94
2023-05-07T00:02:30.633Z,12.97
2023-05-07T00:03:30.608Z,13.05
2023-05-07T00:04:30.511Z,12.90
2023-05-07T00:05:30.461Z,12.97
2023-05-07T00:06:31.252Z,12.95
2023-05-07T00:07:30.443Z,13.04
2023-05-07T00:08:30.432Z,12.90
2023-05-07T00:09:30.437Z,12.95
2023-05-07T00:10:30.421Z,12.98
2023-05-07T00:11:30.416Z,12.93
2023-05-07T00:12:30.404Z,12.93
2023-05-07T00:13:30.419Z,12.87
2023-05-07T00:14:30.386Z,12.85
2023-05-07T00:15:30.385Z,12.90
2023-05-07T00:16:30.428Z,12.82
2023-05-07T00:17:30.521Z,12.85
2023-05-07T00:18:30.371Z,12.82
2023-05-07T00:19:30.382Z,12.87
2023-05-07T00:20:30.350Z,12.83
2023-05-07T00:22:12.273Z,12.73
2023-05-07T00:23:12.280Z,12.75
2023-05-07T00:24:12.267Z,12.78
2023-05-07T00:25:12.277Z,12.70
2023-05-07T00:26:12.252Z,12.80
2023-05-07T00:27:12.249Z,12.76
2023-05-07T00:28:13.339Z,12.76
2023-05-07T00:29:13.314Z,12.76
2023-05-07T00:30:13.430Z,12.82
2023-05-07T00:31:13.365Z,12.76
2023-05-07T00:32:13.438Z,12.76
2023-05-07T00:33:13.359Z,12.87
2023-05-07T00:34:13.278Z,12.83
2023-05-07T00:35:13.388Z,12.82
2023-05-07T00:36:13.273Z,12.76
2023-05-07T00:37:13.251Z,12.75
2023-05-07T00:38:13.258Z,12.86
2023-05-07T00:39:13.928Z,12.83
2023-05-07T00:40:13.387Z,12.72
2023-05-07T00:41:13.246Z,12.75
2023-05-07T00:42:13.224Z,12.82
2023-05-07T00:43:13.223Z,12.82
2023-05-07T00:44:13.206Z,12.85
2023-05-07T00:45:13.195Z,12.86
2023-05-07T00:46:13.239Z,12.72
2023-05-07T00:47:13.173Z,12.70
2023-05-07T00:48:13.203Z,12.78
2023-05-07T00:49:13.167Z,12.85
2023-05-07T00:50:13.458Z,12.78
2023-05-07T00:51:13.167Z,12.73
2023-05-07T00:52:13.130Z,12.70
2023-05-07T00:53:13.134Z,12.70
2023-05-07T00:54:13.112Z,12.68
2023-05-07T00:55:13.216Z,12.73
2023-05-07T00:56:13.105Z,12.64
2023-05-07T00:57:13.110Z,12.75
2023-05-07T00:58:13.083Z,12.73
2023-05-07T00:59:13.126Z,12.80
2023-05-07T01:00:13.391Z,12.68
2023-05-07T01:01:13.116Z,12.78
2023-05-07T01:02:13.048Z,12.75
2023-05-07T01:03:14.063Z,12.70
2023-05-07T01:04:13.063Z,12.68
2023-05-07T01:05:13.143Z,12.68
2023-05-07T01:06:13.027Z,12.70
2023-05-07T01:07:13.017Z,12.58
2023-05-07T01:08:13.005Z,12.68
2023-05-07T01:09:13.014Z,12.65
2023-05-07T01:10:13.291Z,12.64
2023-05-07T01:11:13.044Z,12.64
2023-05-07T01:12:12.979Z,12.65
2023-05-07T01:13:13.022Z,12.62
2023-05-07T01:14:12.972Z,12.58
2023-05-07T01:15:12.960Z,12.54
2023-05-07T01:16:12.950Z,12.62
2023-05-07T01:17:14.035Z,12.58
2023-05-07T01:18:12.969Z,12.58
2023-05-07T01:19:12.933Z,12.55
2023-05-07T01:20:13.127Z,12.60
2023-05-07T01:21:12.989Z,12.73
2023-05-07T01:22:12.930Z,12.61
2023-05-07T01:23:12.917Z,12.64
2023-05-07T01:24:12.924Z,12.57
2023-05-07T01:25:12.885Z,12.61
2023-05-07T01:26:12.897Z,12.54
2023-05-07T01:27:12.870Z,12.55
2023-05-07T01:28:12.862Z,12.58
2023-05-07T01:29:12.857Z,12.60
2023-05-07T01:30:13.044Z,12.55
2023-05-07T01:31:12.843Z,12.47
2023-05-07T01:32:12.826Z,12.61
2023-05-07T01:33:12.816Z,12.46
2023-05-07T01:34:12.803Z,12.53
2023-05-07T01:35:12.799Z,12.57
2023-05-07T01:36:12.792Z,12.55
2023-05-07T01:37:12.873Z,12.54
2023-05-07T01:38:12.784Z,12.57
2023-05-07T01:39:12.769Z,12.55
2023-05-07T01:40:13.541Z,12.49
2023-05-07T01:41:12.755Z,12.49
2023-05-07T01:42:12.749Z,12.46
2023-05-07T01:43:12.757Z,12.58
2023-05-07T01:44:12.730Z,12.43
2023-05-07T01:45:12.741Z,12.46
2023-05-07T01:46:12.718Z,12.40
2023-05-07T01:47:12.716Z,12.43
2023-05-07T01:48:12.713Z,12.42
2023-05-07T01:49:12.697Z,12.37
2023-05-07T01:50:13.027Z,12.40
2023-05-07T01:51:12.668Z,12.39
2023-05-07T01:52:12.664Z,12.46
2023-05-07T01:53:12.731Z,12.32
2023-05-07T01:54:12.643Z,12.35
2023-05-07T01:55:12.644Z,12.39
2023-05-07T01:56:12.630Z,12.45
2023-05-07T01:57:12.612Z,12.36
2023-05-07T01:58:13.046Z,12.37
2023-05-07T01:59:12.609Z,12.45
2023-05-07T02:00:12.857Z,12.35
2023-05-07T02:01:12.729Z,12.35
2023-05-07T02:02:12.640Z,12.28
2023-05-07T02:03:12.682Z,12.27
2023-05-07T02:04:12.643Z,12.27
2023-05-07T02:05:12.557Z,12.27
2023-05-07T02:06:12.548Z,12.24
2023-05-07T02:07:12.538Z,12.18
2023-05-07T02:08:12.558Z,12.13
2023-05-07T02:09:12.609Z,12.12
2023-05-07T02:10:12.755Z,12.15
2023-05-07T02:11:13.475Z,12.17
2023-05-07T02:12:12.505Z,12.13
2023-05-07T02:13:12.526Z,12.13
2023-05-07T02:14:12.508Z,12.10
2023-05-07T02:15:12.488Z,11.99
2023-05-07T02:16:12.505Z,12.00
2023-05-07T02:17:12.471Z,12.04
2023-05-07T02:18:12.469Z,12.00
2023-05-07T02:19:12.456Z,12.04
2023-05-07T02:20:12.501Z,11.99
2023-05-07T02:21:12.483Z,12.03
2023-05-07T02:22:12.444Z,11.94
2023-05-07T02:23:12.423Z,11.94
2023-05-07T02:24:12.417Z,11.90
2023-05-07T02:25:12.591Z,11.87
2023-05-07T02:26:12.399Z,11.90
2023-05-07T02:27:13.463Z,11.88
2023-05-07T02:28:12.444Z,11.88
2023-05-07T02:29:12.373Z,11.88
2023-05-07T02:30:13.055Z,11.81
2023-05-07T02:31:12.360Z,11.87
2023-05-07T02:32:12.437Z,11.80
2023-05-07T02:33:12.366Z,11.84
2023-05-07T02:34:12.349Z,11.81
2023-05-07T02:35:12.967Z,11.94
2023-05-07T02:36:13.050Z,11.95
2023-05-07T02:37:12.306Z,11.95
2023-05-07T02:38:12.322Z,12.02
2023-05-07T02:39:12.298Z,11.88
2023-05-07T02:40:12.602Z,11.94
2023-05-07T02:41:12.367Z,11.94
2023-05-07T02:42:12.285Z,11.94
2023-05-07T02:43:13.043Z,11.83
2023-05-07T02:44:12.255Z,11.75
2023-05-07T02:45:12.264Z,11.75
2023-05-07T02:46:13.095Z,11.81
2023-05-07T02:47:12.243Z,11.80
2023-05-07T02:48:12.229Z,11.78
2023-05-07T02:49:12.222Z,11.80
2023-05-07T02:50:12.439Z,11.77
2023-05-07T02:51:12.203Z,11.77
2023-05-07T02:52:12.205Z,11.68
2023-05-07T02:53:12.180Z,11.81
2023-05-07T02:54:12.186Z,11.78
2023-05-07T02:55:12.202Z,11.83
2023-05-07T02:56:12.169Z,11.80
2023-05-07T02:57:12.226Z,11.78
2023-05-07T02:58:12.137Z,11.75
2023-05-07T02:59:12.121Z,11.78
2023-05-07T03:00:13.174Z,11.75
2023-05-07T03:01:12.185Z,11.83
2023-05-07T03:02:12.128Z,11.80
2023-05-07T03:03:12.164Z,11.78
2023-05-07T03:04:12.150Z,11.81
2023-05-07T03:05:12.105Z,11.72
2023-05-07T03:06:12.074Z,11.70
2023-05-07T03:07:12.068Z,11.73
2023-05-07T03:08:12.057Z,11.77
2023-05-07T03:09:12.057Z,11.66
2023-05-07T03:10:12.305Z,11.63
2023-05-07T03:11:12.053Z,11.63
2023-05-07T03:12:12.033Z,11.69
2023-05-07T03:13:12.170Z,11.65
2023-05-07T03:14:12.026Z,11.69
2023-05-07T03:15:12.022Z,11.62
2023-05-07T03:16:12.019Z,11.59
2023-05-07T03:17:11.990Z,11.59
2023-05-07T03:18:12.084Z,11.59
2023-05-07T03:19:11.992Z,11.52
2023-05-07T03:20:13.225Z,11.60
2023-05-07T03:21:11.957Z,11.68
2023-05-07T03:22:11.949Z,11.59
2023-05-07T03:23:11.959Z,11.54
2023-05-07T03:24:11.935Z,11.60
2023-05-07T03:25:11.937Z,11.66
2023-05-07T03:26:12.499Z,11.65
2023-05-07T03:27:11.925Z,11.62
2023-05-07T03:28:11.908Z,11.63
2023-05-07T03:29:11.983Z,11.55
2023-05-07T03:30:12.045Z,11.48
2023-05-07T03:31:12.546Z,11.47
2023-05-07T03:32:11.997Z,11.57
2023-05-07T03:33:11.895Z,11.55
2023-05-07T03:34:11.858Z,11.50
2023-05-07T03:35:11.856Z,11.50
2023-05-07T03:36:11.843Z,11.54
2023-05-07T03:37:11.830Z,11.51
2023-05-07T03:38:11.811Z,11.47
2023-05-07T03:39:11.813Z,11.50
2023-05-07T03:40:12.285Z,11.48
2023-05-07T03:41:11.841Z,11.50
2023-05-07T03:42:11.789Z,11.45
2023-05-07T03:43:11.784Z,11.41
2023-05-07T03:44:11.775Z,11.33
2023-05-07T03:45:11.768Z,11.37
2023-05-07T03:46:11.805Z,11.36
2023-05-07T03:47:11.770Z,11.32
2023-05-07T03:48:11.815Z,11.33
2023-05-07T03:49:11.738Z,11.30
2023-05-07T03:50:11.979Z,11.30
2023-05-07T03:51:11.716Z,11.33
2023-05-07T03:52:11.888Z,11.23
2023-05-07T03:53:11.718Z,11.27
2023-05-07T03:54:11.692Z,11.27
2023-05-07T03:55:11.697Z,11.30
2023-05-07T03:56:11.671Z,11.33
2023-05-07T03:57:11.692Z,11.37
2023-05-07T03:58:11.681Z,11.32
2023-05-07T03:59:11.660Z,11.27
2023-05-07T04:00:11.879Z,11.27
2023-05-07T04:01:11.641Z,11.32
2023-05-07T04:02:11.656Z,11.36
2023-05-07T04:03:11.745Z,11.26
2023-05-07T04:04:11.699Z,11.30
2023-05-07T04:05:11.614Z,11.23
2023-05-07T04:06:11.611Z,11.26
2023-05-07T04:07:11.597Z,11.23
2023-05-07T04:08:11.593Z,11.19
2023-05-07T04:09:11.601Z,11.19
2023-05-07T04:10:11.781Z,11.18
2023-05-07T04:11:11.585Z,11.19
2023-05-07T04:12:11.567Z,11.26
2023-05-07T04:13:11.589Z,11.15
2023-05-07T04:14:11.552Z,11.30
2023-05-07T04:15:11.534Z,11.25
2023-05-07T04:16:11.634Z,11.22
2023-05-07T04:17:11.518Z,11.32
2023-05-07T04:18:11.520Z,11.23
2023-05-07T04:19:11.505Z,11.22
2023-05-07T04:20:11.747Z,11.25
2023-05-07T04:21:11.543Z,11.15
2023-05-07T04:22:12.484Z,11.27
2023-05-07T04:23:11.987Z,11.19
2023-05-07T04:24:11.467Z,11.22
2023-05-07T04:25:11.476Z,11.17
2023-05-07T04:26:11.461Z,11.22
2023-05-07T04:27:11.434Z,11.27
2023-05-07T04:28:11.430Z,11.22
2023-05-07T04:29:11.431Z,11.17
2023-05-07T04:30:11.727Z,11.18
2023-05-07T04:31:11.436Z,11.25
2023-05-07T04:32:11.504Z,11.27
2023-05-07T04:33:11.436Z,11.22
2023-05-07T04:34:11.397Z,11.10
2023-05-07T04:35:11.383Z,11.27
2023-05-07T04:36:11.396Z,11.15
2023-05-07T04:37:11.414Z,11.19
2023-05-07T04:38:11.369Z,11.15
2023-05-07T04:39:11.356Z,11.23
2023-05-07T04:40:11.553Z,11.25
2023-05-07T04:41:11.326Z,11.23
2023-05-07T04:42:11.372Z,11.12
2023-05-07T04:43:11.371Z,11.19
2023-05-07T04:44:11.351Z,11.17
2023-05-07T04:45:11.314Z,11.19
2023-05-07T04:46:11.327Z,11.18
2023-05-07T04:47:11.305Z,11.18
2023-05-07T04:48:11.308Z,11.19
2023-05-07T04:49:11.435Z,11.19
2023-05-07T04:50:11.469Z,11.22
2023-05-07T04:51:11.254Z,11.14
2023-05-07T04:52:11.253Z,11.22
2023-05-07T04:53:11.258Z,11.18
2023-05-07T04:54:11.249Z,11.15
2023-05-07T04:55:11.220Z,11.27
2023-05-07T04:56:11.216Z,11.19
2023-05-07T04:57:11.246Z,11.18
2023-05-07T04:58:11.214Z,11.23
2023-05-07T04:59:11.194Z,11.22
2023-05-07T05:00:11.339Z,11.23
2023-05-07T05:01:11.222Z,11.27
2023-05-07T05:02:11.188Z,11.19
2023-05-07T05:03:11.235Z,11.12
2023-05-07T05:04:11.302Z,11.12
2023-05-07T05:05:11.189Z,11.15
2023-05-07T05:06:11.158Z,11.18
2023-05-07T05:07:11.130Z,11.17
2023-05-07T05:08:11.130Z,11.25
2023-05-07T05:09:11.123Z,11.27
2023-05-07T05:10:11.370Z,11.19
2023-05-07T05:11:11.117Z,11.19
2023-05-07T05:12:11.108Z,11.15
2023-05-07T05:13:11.106Z,11.25
2023-05-07T05:14:11.092Z,11.25
2023-05-07T05:15:11.081Z,11.29
2023-05-07T05:16:11.248Z,11.12
2023-05-07T05:17:11.067Z,11.23
2023-05-07T05:18:11.051Z,11.22
2023-05-07T05:19:11.064Z,11.25
2023-05-07T05:20:11.192Z,11.30
2023-05-07T05:21:11.110Z,11.18
2023-05-07T05:22:11.046Z,11.23
2023-05-07T05:23:11.016Z,11.22
2023-05-07T05:24:11.013Z,11.22
2023-05-07T05:25:10.995Z,11.25
2023-05-07T05:26:10.986Z,11.22
2023-05-07T05:27:11.013Z,11.25
2023-05-07T05:28:10.977Z,11.26
2023-05-07T05:29:11.029Z,11.36
2023-05-07T05:30:11.141Z,11.30
2023-05-07T05:31:10.970Z,11.29
2023-05-07T05:32:10.941Z,11.27
2023-05-07T05:33:11.029Z,11.25
2023-05-07T05:34:10.940Z,11.30
2023-05-07T05:35:10.914Z,11.30
2023-05-07T05:36:10.909Z,11.19
2023-05-07T05:37:10.923Z,11.30
2023-05-07T05:38:10.895Z,11.27
2023-05-07T05:39:11.893Z,11.17
2023-05-07T05:40:11.780Z,11.26
2023-05-07T05:41:10.897Z,11.33
2023-05-07T05:42:10.869Z,11.30
2023-05-07T05:43:10.867Z,11.33
2023-05-07T05:44:10.858Z,11.30
2023-05-07T05:45:10.846Z,11.30
2023-05-07T05:46:10.881Z,11.33
2023-05-07T05:47:10.830Z,11.29
2023-05-07T05:48:10.886Z,11.36
2023-05-07T05:49:10.804Z,11.32
2023-05-07T05:50:11.024Z,11.35
2023-05-07T05:51:10.807Z,11.44
2023-05-07T05:52:11.521Z,11.43
2023-05-07T05:53:11.796Z,11.43
2023-05-07T05:54:10.785Z,11.55
2023-05-07T05:55:11.527Z,11.55
2023-05-07T05:56:10.769Z,11.51
2023-05-07T05:57:10.745Z,11.57
2023-05-07T05:58:10.737Z,11.48
2023-05-07T05:59:10.786Z,11.40
2023-05-07T06:00:10.961Z,11.37
2023-05-07T06:01:10.728Z,11.40
2023-05-07T06:02:10.743Z,11.47
2023-05-07T06:03:10.751Z,11.59
2023-05-07T06:04:10.691Z,11.47
2023-05-07T06:05:10.733Z,11.51
2023-05-07T06:06:10.668Z,11.54
2023-05-07T06:07:11.677Z,11.51
2023-05-07T06:08:10.686Z,11.45
2023-05-07T06:09:10.671Z,11.60
2023-05-07T06:10:11.033Z,11.69
2023-05-07T06:11:10.645Z,11.68
2023-05-07T06:12:10.633Z,11.72
2023-05-07T06:13:10.650Z,11.65
2023-05-07T06:14:10.630Z,11.73
2023-05-07T06:15:10.620Z,11.65
2023-05-07T06:16:11.627Z,11.70
2023-05-07T06:17:10.605Z,11.66
2023-05-07T06:18:10.637Z,11.70
2023-05-07T06:19:10.589Z,11.78
2023-05-07T06:20:10.920Z,11.77
2023-05-07T06:21:11.617Z,11.77
2023-05-07T06:22:11.101Z,11.78
2023-05-07T06:23:10.625Z,11.77
2023-05-07T06:24:10.554Z,11.80
2023-05-07T06:25:11.597Z,11.84
2023-05-07T06:26:11.521Z,11.81
2023-05-07T06:27:10.521Z,11.87
2023-05-07T06:28:10.513Z,11.81
2023-05-07T06:29:11.022Z,11.91
2023-05-07T06:30:11.223Z,11.78
2023-05-07T06:31:10.516Z,11.75
2023-05-07T06:32:10.585Z,11.87
2023-05-07T06:33:10.520Z,11.88
2023-05-07T06:34:10.472Z,11.81
2023-05-07T06:35:10.474Z,11.95
2023-05-07T06:36:10.991Z,11.84
2023-05-07T06:37:10.452Z,11.81
2023-05-07T06:38:10.429Z,11.88
2023-05-07T06:39:10.423Z,11.88
2023-05-07T06:40:10.599Z,11.94
2023-05-07T06:41:10.593Z,11.97
2023-05-07T06:42:10.406Z,11.87
2023-05-07T06:43:10.383Z,11.90
2023-05-07T06:44:10.378Z,11.87
2023-05-07T06:45:10.369Z,11.86
2023-05-07T06:46:10.432Z,11.87
2023-05-07T06:47:10.353Z,12.07
2023-05-07T06:48:10.343Z,11.87
2023-05-07T06:49:10.382Z,12.00
2023-05-07T06:50:10.478Z,12.02
2023-05-07T06:51:10.336Z,12.04
2023-05-07T06:52:10.313Z,12.09
2023-05-07T06:53:10.301Z,12.24
2023-05-07T06:54:10.302Z,12.20
2023-05-07T06:55:10.303Z,12.21
2023-05-07T06:56:10.300Z,12.29
2023-05-07T06:57:10.268Z,12.17
2023-05-07T06:58:10.259Z,12.17
2023-05-07T06:59:10.261Z,12.10
2023-05-07T07:00:10.624Z,12.15
2023-05-07T07:01:10.275Z,12.18
2023-05-07T07:02:10.221Z,12.13
2023-05-07T07:03:10.261Z,12.21
2023-05-07T07:04:10.254Z,12.18
2023-05-07T07:05:10.282Z,12.22
2023-05-07T07:06:10.217Z,12.25
2023-05-07T07:07:10.188Z,12.31
2023-05-07T07:08:10.180Z,12.37
2023-05-07T07:09:10.188Z,12.42
2023-05-07T07:10:10.365Z,12.43
2023-05-07T07:11:10.161Z,12.46
2023-05-07T07:12:10.145Z,12.29
2023-05-07T07:13:10.260Z,12.27
2023-05-07T07:14:10.149Z,12.22
2023-05-07T07:15:10.139Z,12.20
2023-05-07T07:16:10.184Z,12.18
2023-05-07T07:17:10.109Z,12.17
2023-05-07T07:18:10.157Z,12.25
2023-05-07T07:19:10.105Z,12.18
2023-05-07T07:20:11.787Z,12.13
2023-05-07T07:21:11.076Z,12.24
2023-05-07T07:22:10.091Z,12.31
2023-05-07T07:23:10.059Z,12.25
2023-05-07T07:24:10.055Z,12.35
2023-05-07T07:25:10.930Z,12.47
2023-05-07T07:26:11.044Z,12.50
2023-05-07T07:27:11.032Z,12.62
2023-05-07T07:28:10.031Z,12.61
2023-05-07T07:29:11.149Z,12.73
2023-05-07T07:30:10.177Z,12.64
2023-05-07T07:31:10.054Z,12.68
2023-05-07T07:32:09.995Z,12.80
2023-05-07T07:33:10.091Z,12.73
2023-05-07T07:34:09.991Z,12.76
2023-05-07T07:35:09.970Z,12.58
2023-05-07T07:36:09.965Z,12.53
2023-05-07T07:37:09.948Z,12.49
2023-05-07T07:38:09.949Z,12.58
2023-05-07T07:39:09.945Z,12.76
2023-05-07T07:40:10.374Z,12.76
2023-05-07T07:41:09.917Z,12.79
2023-05-07T07:42:09.918Z,12.86
2023-05-07T07:43:10.535Z,12.91
2023-05-07T07:44:09.936Z,12.98
2023-05-07T07:45:09.990Z,13.18
2023-05-07T07:46:09.886Z,13.30
2023-05-07T07:47:09.957Z,13.38
2023-05-07T07:48:09.972Z,13.49
2023-05-07T07:49:09.868Z,13.54
2023-05-07T07:50:10.073Z,13.63
2023-05-07T07:51:09.879Z,13.77
2023-05-07T07:52:09.857Z,13.79
2023-05-07T07:53:09.826Z,13.86
2023-05-07T07:54:09.861Z,14.03
2023-05-07T07:55:10.544Z,14.18
2023-05-07T07:56:09.807Z,14.23
2023-05-07T07:57:09.794Z,14.18
2023-05-07T07:58:09.805Z,14.18
2023-05-07T07:59:09.825Z,14.23
2023-05-07T08:00:09.915Z,14.37
2023-05-07T08:01:09.894Z,14.37
2023-05-07T08:02:09.826Z,14.51
2023-05-07T08:03:09.905Z,14.77
2023-05-07T08:04:09.838Z,14.77
2023-05-07T08:05:10.543Z,14.54
2023-05-07T08:06:09.745Z,14.44
2023-05-07T08:07:10.556Z,14.43
2023-05-07T08:08:09.703Z,14.51
2023-05-07T08:09:09.693Z,14.32
2023-05-07T08:10:10.897Z,14.41
2023-05-07T08:11:09.698Z,14.41
2023-05-07T08:12:10.554Z,14.41
2023-05-07T08:13:09.774Z,14.20
2023-05-07T08:14:09.669Z,14.15
2023-05-07T08:15:09.651Z,14.37
2023-05-07T08:16:10.632Z,14.55
2023-05-07T08:17:09.724Z,14.53
2023-05-07T08:18:09.682Z,14.65
2023-05-07T08:19:09.615Z,14.69
2023-05-07T08:20:10.424Z,14.68
2023-05-07T08:21:09.601Z,14.78
2023-05-07T08:22:09.596Z,14.88
2023-05-07T08:23:09.644Z,15.04
2023-05-07T08:24:10.550Z,14.97
2023-05-07T08:25:09.569Z,15.09
2023-05-07T08:26:09.566Z,14.97
2023-05-07T08:27:09.558Z,14.94
2023-05-07T08:28:10.144Z,15.19
2023-05-07T08:29:10.585Z,15.21
2023-05-07T08:30:09.662Z,15.21
2023-05-07T08:31:09.539Z,15.14
2023-05-07T08:32:09.524Z,15.22
2023-05-07T08:33:09.640Z,15.42
2023-05-07T08:34:10.178Z,15.15
2023-05-07T08:35:10.487Z,14.82
2023-05-07T08:36:09.527Z,14.51
2023-05-07T08:37:10.481Z,14.20
2023-05-07T08:38:11.154Z,14.11
2023-05-07T08:39:09.469Z,13.92
2023-05-07T08:40:12.259Z,13.92
2023-05-07T08:41:11.462Z,14.00
2023-05-07T08:42:09.450Z,14.08
2023-05-07T08:43:09.438Z,14.04
2023-05-07T08:44:09.423Z,14.20
2023-05-07T08:45:09.421Z,14.07
2023-05-07T08:46:10.343Z,14.04
2023-05-07T08:47:10.394Z,14.08
2023-05-07T08:48:09.420Z,13.95
2023-05-07T08:49:09.511Z,14.05
2023-05-07T08:50:09.483Z,14.12
2023-05-07T08:51:09.361Z,14.15
2023-05-07T08:52:10.126Z,14.17
2023-05-07T08:53:10.350Z,14.35
2023-05-07T08:54:09.340Z,14.22
2023-05-07T08:55:09.429Z,14.23
2023-05-07T08:56:09.345Z,14.32
2023-05-07T08:57:09.314Z,14.35
2023-05-07T08:58:09.314Z,14.43
2023-05-07T08:59:09.297Z,14.66
2023-05-07T09:00:09.378Z,14.50
2023-05-07T09:02:16.181Z,14.17
2023-05-07T09:03:16.185Z,14.20
2023-05-07T09:04:16.309Z,14.43
2023-05-07T09:05:16.112Z,14.51
2023-05-07T09:06:16.121Z,14.78
2023-05-07T09:07:17.191Z,14.62
2023-05-07T09:08:17.272Z,14.41
2023-05-07T09:09:17.165Z,14.37
2023-05-07T09:10:17.171Z,14.48
2023-05-07T09:11:17.183Z,14.18
2023-05-07T09:12:17.154Z,14.12
2023-05-07T09:13:17.256Z,14.15
2023-05-07T09:14:19.061Z,14.25
2023-05-07T09:15:17.133Z,14.26
2023-05-07T09:16:17.160Z,14.41
2023-05-07T09:17:17.104Z,14.44
2023-05-07T09:18:17.146Z,14.43
2023-05-07T09:19:17.089Z,14.40
2023-05-07T09:20:17.167Z,14.50
2023-05-07T09:21:17.074Z,14.43
2023-05-07T09:22:17.061Z,14.45
2023-05-07T09:23:17.066Z,14.47
2023-05-07T09:24:17.045Z,14.45
2023-05-07T09:25:17.071Z,14.32
2023-05-07T09:26:17.031Z,14.18
2023-05-07T09:27:17.019Z,14.28
2023-05-07T09:28:19.007Z,14.07
2023-05-07T09:29:19.485Z,14.12
2023-05-07T09:30:17.054Z,14.22
2023-05-07T09:31:18.229Z,14.47
2023-05-07T09:32:17.032Z,14.50
2023-05-07T09:33:17.489Z,14.55
2023-05-07T09:34:16.977Z,14.58
2023-05-07T09:35:17.015Z,14.62
2023-05-07T09:36:17.053Z,14.62
2023-05-07T09:37:16.948Z,14.44
2023-05-07T09:38:16.935Z,14.35
2023-05-07T09:39:16.947Z,14.25
2023-05-07T09:40:16.926Z,14.26
2023-05-07T09:41:18.619Z,14.37
2023-05-07T09:42:16.942Z,14.50
2023-05-07T09:43:17.104Z,14.41
2023-05-07T09:44:16.907Z,14.59
2023-05-07T09:45:17.596Z,14.54
2023-05-07T09:46:16.913Z,14.60
2023-05-07T09:47:16.867Z,14.66
2023-05-07T09:48:16.891Z,14.63
2023-05-07T09:49:17.780Z,14.55
2023-05-07T09:50:17.631Z,14.59
2023-05-07T09:51:16.875Z,14.48
2023-05-07T09:52:17.053Z,14.33
2023-05-07T09:53:17.517Z,14.25
2023-05-07T09:54:16.909Z,14.36
2023-05-07T09:55:17.529Z,14.48
2023-05-07T09:56:16.810Z,14.43
2023-05-07T09:57:16.810Z,14.78
2023-05-07T09:58:16.796Z,14.99
2023-05-07T09:59:21.504Z,14.88
2023-05-07T10:00:16.855Z,14.72
2023-05-07T10:01:17.599Z,14.53
2023-05-07T10:02:16.831Z,14.55
2023-05-07T10:03:16.818Z,14.63
2023-05-07T10:04:16.759Z,14.63
2023-05-07T10:05:18.608Z,14.62
2023-05-07T10:06:16.727Z,14.58
2023-05-07T10:07:17.494Z,14.41
2023-05-07T10:08:16.777Z,14.26
2023-05-07T10:09:17.376Z,14.37
2023-05-07T10:10:16.740Z,14.30
2023-05-07T10:11:16.699Z,14.43
2023-05-07T10:12:16.748Z,14.60
2023-05-07T10:13:16.692Z,14.68
2023-05-07T10:14:16.675Z,14.85
2023-05-07T10:15:16.656Z,14.66
2023-05-07T10:16:16.664Z,14.66
2023-05-07T10:17:17.658Z,14.79
2023-05-07T10:18:16.727Z,14.89
2023-05-07T10:19:17.623Z,15.04
2023-05-07T10:20:16.682Z,15.03
2023-05-07T10:21:21.688Z,15.07
2023-05-07T10:22:22.498Z,15.15
2023-05-07T10:23:19.319Z,14.77
2023-05-07T10:24:16.594Z,14.82
2023-05-07T10:25:16.583Z,14.85
2023-05-07T10:26:16.584Z,15.02
2023-05-07T10:27:16.575Z,15.11
2023-05-07T10:28:18.088Z,15.19
2023-05-07T10:29:16.555Z,15.14
2023-05-07T10:30:16.554Z,15.17
2023-05-07T10:31:16.540Z,15.00
2023-05-07T10:32:16.557Z,14.99
2023-05-07T10:33:16.677Z,14.84
2023-05-07T10:34:16.519Z,14.81
2023-05-07T10:35:17.090Z,14.91
2023-05-07T10:36:16.502Z,15.21
2023-05-07T10:37:16.522Z,15.18
2023-05-07T10:38:19.107Z,15.22
2023-05-07T10:40:16.478Z,14.85
2023-05-07T10:41:17.034Z,14.96
2023-05-07T10:42:16.469Z,15.15
2023-05-07T10:43:18.019Z,15.42
2023-05-07T10:44:16.439Z,15.49
2023-05-07T10:45:16.448Z,15.61
2023-05-07T10:46:16.505Z,15.51
2023-05-07T10:47:18.098Z,15.39
2023-05-07T10:48:29.745Z,15.22
2023-05-07T10:49:18.405Z,15.31
2023-05-07T10:50:16.426Z,15.15
2023-05-07T10:51:20.036Z,15.22
2023-05-07T10:52:17.131Z,15.15
2023-05-07T10:53:16.369Z,15.04
2023-05-07T10:54:18.147Z,15.06
2023-05-07T10:55:16.706Z,14.88
2023-05-07T10:56:16.343Z,15.17
2023-05-07T10:57:18.066Z,15.36
2023-05-07T10:58:30.120Z,15.62
2023-05-07T10:59:18.325Z,15.70
2023-05-07T11:00:18.431Z,15.68
2023-05-07T11:01:18.374Z,15.76
2023-05-07T11:02:16.372Z,15.65
2023-05-07T11:03:16.312Z,15.59
2023-05-07T11:04:16.304Z,15.82
2023-05-07T11:05:16.325Z,15.76
2023-05-07T11:06:16.285Z,15.80
2023-05-07T11:07:16.281Z,15.94
2023-05-07T11:08:16.238Z,15.90
2023-05-07T11:09:16.247Z,16.05
2023-05-07T11:10:16.239Z,16.08
2023-05-07T11:11:16.242Z,16.15
2023-05-07T11:12:16.240Z,15.98
2023-05-07T11:13:19.079Z,16.00
2023-05-07T11:14:16.201Z,16.01
2023-05-07T11:15:16.186Z,16.04
2023-05-07T11:16:18.114Z,16.02
2023-05-07T11:17:16.175Z,15.97
2023-05-07T11:18:16.169Z,16.08
2023-05-07T11:19:16.182Z,16.08
2023-05-07T11:20:16.160Z,15.94
2023-05-07T11:21:16.142Z,16.05
2023-05-07T11:22:16.164Z,16.15
2023-05-07T11:23:16.126Z,16.10
2023-05-07T11:24:16.116Z,16.16
2023-05-07T11:25:17.612Z,16.23
2023-05-07T11:26:17.611Z,16.02
2023-05-07T11:27:16.137Z,16.15
2023-05-07T11:28:16.099Z,16.10
2023-05-07T11:29:16.090Z,16.26
2023-05-07T11:30:16.068Z,16.35
2023-05-07T11:31:16.071Z,16.33
2023-05-07T11:32:16.057Z,16.36
2023-05-07T11:33:16.084Z,16.47
2023-05-07T11:34:17.061Z,16.46
2023-05-07T11:35:16.035Z,16.60
2023-05-07T11:36:16.007Z,16.57
2023-05-07T11:37:17.623Z,16.71
2023-05-07T11:38:16.630Z,16.72
2023-05-07T11:39:15.989Z,16.53
2023-05-07T11:40:16.983Z,16.53
2023-05-07T11:41:15.970Z,16.64
2023-05-07T11:42:15.975Z,16.56
2023-05-07T11:43:16.029Z,16.47
2023-05-07T11:44:15.957Z,16.51
2023-05-07T11:45:15.945Z,16.56
2023-05-07T11:46:15.947Z,16.49
2023-05-07T11:47:15.919Z,16.56
2023-05-07T11:48:15.929Z,16.47
2023-05-07T11:49:18.621Z,16.61
2023-05-07T11:50:15.917Z,16.49
2023-05-07T11:51:15.924Z,16.58
2023-05-07T11:52:15.902Z,16.84
2023-05-07T11:53:15.885Z,16.81
2023-05-07T11:54:15.900Z,16.78
2023-05-07T11:55:16.540Z,16.84
2023-05-07T11:56:15.916Z,16.90
2023-05-07T11:57:18.623Z,16.89
2023-05-07T11:59:15.827Z,16.57
2023-05-07T12:00:15.834Z,16.68
2023-05-07T12:01:15.815Z,16.87
2023-05-07T12:02:15.876Z,17.02
2023-05-07T12:03:15.881Z,16.93
2023-05-07T12:04:16.263Z,16.69
2023-05-07T12:05:15.848Z,16.53
2023-05-07T12:06:15.827Z,16.29
2023-05-07T12:07:15.800Z,16.32
2023-05-07T12:08:15.773Z,16.24
2023-05-07T12:09:16.660Z,16.32
2023-05-07T12:10:15.749Z,16.12
2023-05-07T12:11:15.796Z,16.20
2023-05-07T12:12:17.622Z,16.04
2023-05-07T12:13:15.778Z,16.13
2023-05-07T12:14:15.719Z,16.21
2023-05-07T12:15:19.537Z,16.21
2023-05-07T12:16:15.719Z,16.05
2023-05-07T12:17:15.862Z,16.15
2023-05-07T12:18:15.688Z,16.08
2023-05-07T12:19:16.014Z,16.05
2023-05-07T12:20:16.658Z,16.02
2023-05-07T12:21:15.679Z,15.86
2023-05-07T12:22:15.648Z,15.79
2023-05-07T12:23:17.541Z,15.59
2023-05-07T12:24:15.660Z,15.73
2023-05-07T12:25:15.854Z,15.64
2023-05-07T12:26:15.627Z,15.84
2023-05-07T12:27:15.680Z,15.92
2023-05-07T12:28:15.602Z,15.86
2023-05-07T12:29:15.603Z,15.83
2023-05-07T12:30:15.606Z,15.98
2023-05-07T12:31:15.762Z,16.24
2023-05-07T12:32:15.607Z,16.04
2023-05-07T12:33:16.554Z,16.10
2023-05-07T12:34:18.562Z,15.83
2023-05-07T12:35:15.540Z,15.83
2023-05-07T12:36:15.563Z,15.80
2023-05-07T12:37:15.548Z,15.86
2023-05-07T12:38:15.554Z,15.84
2023-05-07T12:39:15.515Z,16.09
2023-05-07T12:40:15.540Z,16.33
2023-05-07T12:41:16.064Z,16.29
2023-05-07T12:42:15.532Z,16.28
2023-05-07T12:43:15.488Z,16.32
2023-05-07T12:44:16.072Z,16.36
2023-05-07T12:45:16.646Z,16.28
2023-05-07T12:46:15.611Z,16.39
2023-05-07T12:47:15.469Z,16.42
2023-05-07T12:48:15.444Z,16.43
2023-05-07T12:49:15.450Z,16.57
2023-05-07T12:50:15.485Z,16.57
2023-05-07T12:51:17.173Z,16.41
2023-05-07T12:52:15.455Z,16.36
2023-05-07T12:53:15.417Z,16.24
2023-05-07T12:54:15.408Z,16.39
2023-05-07T12:55:17.080Z,16.43
2023-05-07T12:56:15.378Z,16.43